createdAt,value
2022-11-06T00:01:54.054Z,1.95
2022-11-06T00:05:16.053Z,1.63
2022-11-06T00:08:28.004Z,2.03
2022-11-06T00:11:30.803Z,1.80
2022-11-06T00:14:32.785Z,1.67
2022-11-06T00:17:35.719Z,1.92
2022-11-06T00:20:37.860Z,2.20
2022-11-06T00:23:40.472Z,1.58
2022-11-06T00:26:43.263Z,1.65
2022-11-06T00:29:45.550Z,1.83
2022-11-06T00:32:48.019Z,1.90
2022-11-06T00:35:50.104Z,1.95
2022-11-06T00:38:56.238Z,1.48
2022-11-06T00:41:58.289Z,1.70
2022-11-06T00:45:03.760Z,1.42
2022-11-06T00:48:06.152Z,1.60
2022-11-06T00:51:13.049Z,2.00
2022-11-06T00:54:15.268Z,1.58
2022-11-06T00:57:17.355Z,3.38
2022-11-06T01:00:20.651Z,1.85
2022-11-06T01:03:22.775Z,2.05
2022-11-06T01:06:28.052Z,1.55
2022-11-06T01:09:30.281Z,1.70
2022-11-06T01:12:33.791Z,1.38
2022-11-06T01:15:36.703Z,1.88
2022-11-06T01:18:40.381Z,2.10
2022-11-06T01:21:44.593Z,2.03
2022-11-06T01:24:46.798Z,2.03
2022-11-06T01:27:48.909Z,1.98
2022-11-06T01:30:51.149Z,2.10
2022-11-06T01:33:54.694Z,1.85
2022-11-06T01:36:56.786Z,1.73
2022-11-06T01:39:58.850Z,2.30
2022-11-06T01:43:00.939Z,1.65
2022-11-06T01:46:02.970Z,1.75
2022-11-06T01:49:13.420Z,1.98
2022-11-06T01:52:16.571Z,1.95
2022-11-06T01:55:26.257Z,1.52
2022-11-06T01:58:32.892Z,1.63
2022-11-06T02:01:35.098Z,2.00
2022-11-06T02:04:48.379Z,1.75
2022-11-06T02:07:51.084Z,1.80
2022-11-06T02:10:53.571Z,1.88
2022-11-06T02:14:32.300Z,1.52
2022-11-06T02:18:01.391Z,2.03
2022-11-06T02:21:12.332Z,1.75
2022-11-06T02:24:54.165Z,1.85
2022-11-06T02:28:04.352Z,1.33
2022-11-06T02:31:16.813Z,2.05
2022-11-06T02:34:21.326Z,1.55
2022-11-06T02:37:34.149Z,1.88
2022-11-06T02:40:42.567Z,1.70
2022-11-06T02:43:48.571Z,1.90
2022-11-06T02:47:01.763Z,2.92
2022-11-06T02:50:11.320Z,2.13
2022-11-06T02:53:15.614Z,2.00
2022-11-06T02:56:25.902Z,1.83
2022-11-06T02:59:43.685Z,2.13
2022-11-06T03:03:01.107Z,2.22
2022-11-06T03:06:10.983Z,2.33
2022-11-06T03:09:25.831Z,2.97
2022-11-06T03:12:34.605Z,2.45
2022-11-06T03:15:57.982Z,2.75
2022-11-06T03:19:26.356Z,2.58
2022-11-06T03:22:31.281Z,2.45
2022-11-06T03:25:53.343Z,2.90
2022-11-06T03:29:05.123Z,3.05
2022-11-06T03:32:19.385Z,2.28
2022-11-06T03:35:31.410Z,2.38
2022-11-06T03:38:44.374Z,2.72
2022-11-06T03:41:52.878Z,2.78
2022-11-06T03:48:12.654Z,2.22
2022-11-06T03:51:40.911Z,2.15
2022-11-06T03:54:49.764Z,2.22
2022-11-06T03:58:08.739Z,2.92
2022-11-06T04:01:13.575Z,2.55
2022-11-06T04:04:22.110Z,2.15
2022-11-06T04:07:30.280Z,3.35
2022-11-06T04:10:52.743Z,2.38
2022-11-06T04:14:01.134Z,2.60
2022-11-06T04:17:07.488Z,2.67
2022-11-06T04:20:36.719Z,2.83
2022-11-06T04:24:12.614Z,2.30
2022-11-06T04:27:38.997Z,3.13
2022-11-06T04:30:55.975Z,3.15
2022-11-06T04:34:14.370Z,2.65
2022-11-06T04:37:25.666Z,3.40
2022-11-06T04:41:02.698Z,3.30
2022-11-06T04:44:11.093Z,2.78
2022-11-06T04:47:17.621Z,2.83
2022-11-06T04:50:22.420Z,2.20
2022-11-06T04:53:26.137Z,2.33
2022-11-06T04:56:35.179Z,2.30
2022-11-06T04:59:37.869Z,2.17
2022-11-06T05:02:40.129Z,2.50
2022-11-06T05:05:42.794Z,2.22
2022-11-06T05:08:44.851Z,2.28
2022-11-06T05:11:47.188Z,3.65
2022-11-06T05:14:49.339Z,3.10
2022-11-06T05:17:51.259Z,3.78
2022-11-06T05:21:13.907Z,2.78
2022-11-06T05:24:16.051Z,2.35
2022-11-06T05:27:18.094Z,2.97
2022-11-06T05:30:20.104Z,3.17
2022-11-06T05:33:22.359Z,2.97
2022-11-06T05:36:24.754Z,2.80
2022-11-06T05:39:26.789Z,2.05
2022-11-06T05:42:28.907Z,1.90
2022-11-06T05:45:31.095Z,1.92
2022-11-06T05:48:33.212Z,2.40
2022-11-06T05:51:36.068Z,2.65
2022-11-06T05:54:38.064Z,2.40
2022-11-06T05:57:40.097Z,3.75
2022-11-06T06:00:42.242Z,3.72
2022-11-06T06:03:44.404Z,2.63
2022-11-06T06:06:46.820Z,2.05
2022-11-06T06:09:49.350Z,2.90
2022-11-06T06:12:51.568Z,2.22
2022-11-06T06:15:53.762Z,2.92
2022-11-06T06:18:55.910Z,4.32
2022-11-06T06:21:58.132Z,3.13
2022-11-06T06:25:00.464Z,2.78
2022-11-06T06:28:02.819Z,2.58
2022-11-06T06:31:06.761Z,2.80
2022-11-06T06:34:08.859Z,2.90
2022-11-06T06:37:11.030Z,3.08
2022-11-06T06:40:13.309Z,3.30
2022-11-06T06:43:19.795Z,4.05
2022-11-06T06:46:21.850Z,2.53
2022-11-06T06:49:24.128Z,3.40
2022-11-06T06:52:26.129Z,2.58
2022-11-06T06:55:28.117Z,3.20
2022-11-06T06:58:30.518Z,2.10
2022-11-06T07:01:33.835Z,2.83
2022-11-06T07:04:36.024Z,3.25
2022-11-06T07:07:38.855Z,3.17
2022-11-06T07:10:41.104Z,2.58
2022-11-06T07:13:43.137Z,3.40
2022-11-06T07:16:48.559Z,3.03
2022-11-06T07:19:54.705Z,2.65
2022-11-06T07:22:56.907Z,3.80
2022-11-06T07:25:58.936Z,3.13
2022-11-06T07:29:01.182Z,3.63
2022-11-06T07:32:03.389Z,4.35
2022-11-06T07:35:06.076Z,3.28
2022-11-06T07:38:08.113Z,3.00
2022-11-06T07:41:13.109Z,3.80
2022-11-06T07:44:15.200Z,3.28
2022-11-06T07:47:17.206Z,3.08
2022-11-06T07:50:19.447Z,3.42
2022-11-06T07:53:21.565Z,3.33
2022-11-06T07:56:24.041Z,3.42
2022-11-06T07:59:26.030Z,3.15
2022-11-06T08:02:28.048Z,3.05
2022-11-06T08:05:30.222Z,3.92
2022-11-06T08:08:32.467Z,4.60
2022-11-06T08:11:34.783Z,3.22
2022-11-06T08:14:41.268Z,4.43
2022-11-06T08:17:43.585Z,3.92
2022-11-06T08:20:47.901Z,2.95
2022-11-06T08:23:50.265Z,1.80
2022-11-06T08:26:52.480Z,2.70
2022-11-06T08:29:56.704Z,2.40
2022-11-06T08:33:04.695Z,2.55
2022-11-06T08:36:08.315Z,2.00
2022-11-06T08:39:11.533Z,2.75
2022-11-06T08:42:14.198Z,2.42
2022-11-06T08:45:16.300Z,2.92
2022-11-06T08:48:18.704Z,2.90
2022-11-06T08:51:20.789Z,3.05
2022-11-06T08:54:22.863Z,3.67
2022-11-06T08:57:25.517Z,2.53
2022-11-06T09:00:28.116Z,2.65
2022-11-06T09:03:30.272Z,2.50
2022-11-06T09:06:32.456Z,2.30
2022-11-06T09:09:35.550Z,2.97
2022-11-06T09:12:38.470Z,3.22
2022-11-06T09:15:41.815Z,3.60
2022-11-06T09:18:44.232Z,2.40
2022-11-06T09:21:51.869Z,4.80
2022-11-06T09:25:03.818Z,3.25
2022-11-06T09:28:07.005Z,3.00
2022-11-06T09:31:09.695Z,2.58
2022-11-06T09:34:11.744Z,2.70
2022-11-06T09:37:13.962Z,3.55
2022-11-06T09:40:33.491Z,2.92
2022-11-06T09:44:07.812Z,3.20
2022-11-06T09:47:19.320Z,3.42
2022-11-06T09:50:26.870Z,3.42
2022-11-06T09:53:42.731Z,2.45
2022-11-06T09:56:48.285Z,2.95
2022-11-06T09:59:51.491Z,3.00
2022-11-06T10:02:56.823Z,3.50
2022-11-06T10:05:59.665Z,2.42
2022-11-06T10:09:06.286Z,2.90
2022-11-06T10:12:27.798Z,2.33
2022-11-06T10:15:59.227Z,3.03
2022-11-06T10:19:07.364Z,3.33
2022-11-06T10:22:14.925Z,2.90
2022-11-06T10:25:34.652Z,2.72
2022-11-06T10:28:55.340Z,4.10
2022-11-06T10:32:18.250Z,3.67
2022-11-06T10:35:34.396Z,3.15
2022-11-06T10:38:40.652Z,3.20
2022-11-06T10:41:46.352Z,4.00
2022-11-06T10:45:14.559Z,3.75
2022-11-06T10:48:39.996Z,2.83
2022-11-06T10:52:04.510Z,3.63
2022-11-06T10:55:09.492Z,4.22
2022-11-06T10:58:21.667Z,3.15
2022-11-06T11:01:23.997Z,3.10
2022-11-06T11:04:26.065Z,2.92
2022-11-06T11:07:34.629Z,3.55
2022-11-06T11:10:37.265Z,2.47
2022-11-06T11:13:44.403Z,3.72
2022-11-06T11:16:46.419Z,4.80
2022-11-06T11:19:48.491Z,3.65
2022-11-06T11:23:19.131Z,4.88
2022-11-06T11:26:25.980Z,4.68
2022-11-06T11:29:50.653Z,4.07
2022-11-06T11:32:54.392Z,4.47
2022-11-06T11:35:56.633Z,3.95
2022-11-06T11:38:58.684Z,4.10
2022-11-06T11:42:21.964Z,4.53
2022-11-06T11:45:24.034Z,4.57
2022-11-06T11:48:26.103Z,4.25
2022-11-06T11:51:47.952Z,4.13
2022-11-06T11:54:54.591Z,3.97
2022-11-06T11:58:00.426Z,3.50
2022-11-06T12:01:05.259Z,4.40
2022-11-06T12:04:21.910Z,4.63
2022-11-06T12:07:29.568Z,4.20
2022-11-06T12:10:37.198Z,3.15
2022-11-06T12:13:39.212Z,5.07
2022-11-06T12:16:42.282Z,4.53
2022-11-06T12:19:52.026Z,4.82
2022-11-06T12:22:57.782Z,5.07
2022-11-06T12:26:12.163Z,3.97
2022-11-06T12:29:19.625Z,4.72
2022-11-06T12:32:42.126Z,4.82
2022-11-06T12:35:49.690Z,4.82
2022-11-06T12:38:59.728Z,5.63
2022-11-06T12:42:04.444Z,4.07
2022-11-06T12:45:12.515Z,4.72
2022-11-06T12:48:44.602Z,3.90
2022-11-06T12:51:47.847Z,5.07
2022-11-06T12:54:55.605Z,4.75
2022-11-06T12:58:59.077Z,4.27
2022-11-06T13:02:28.011Z,4.00
2022-11-06T13:05:38.463Z,5.40
2022-11-06T13:09:01.043Z,4.30
2022-11-06T13:12:22.398Z,5.05
2022-11-06T13:15:24.580Z,5.15
2022-11-06T13:18:36.053Z,4.38
2022-11-06T13:21:56.360Z,6.20
2022-11-06T13:25:10.492Z,5.25
2022-11-06T13:28:39.635Z,4.88
2022-11-06T13:31:55.365Z,5.72
2022-11-06T13:34:59.912Z,5.40
2022-11-06T13:38:39.077Z,5.80
2022-11-06T13:41:41.655Z,5.53
2022-11-06T13:44:44.014Z,5.13
2022-11-06T13:48:14.061Z,5.43
2022-11-06T13:51:45.537Z,4.82
2022-11-06T13:55:15.402Z,6.70
2022-11-06T13:58:48.269Z,5.20
2022-11-06T14:02:27.941Z,6.05
2022-11-06T14:05:51.519Z,5.68
2022-11-06T14:09:08.626Z,6.68
2022-11-06T14:12:19.560Z,5.93
2022-11-06T14:15:24.240Z,5.97
2022-11-06T14:18:28.433Z,6.10
2022-11-06T14:22:12.733Z,5.45
2022-11-06T14:25:29.490Z,5.65
2022-11-06T14:28:37.205Z,6.88
2022-11-06T14:32:06.816Z,5.70
2022-11-06T14:38:35.956Z,5.60
2022-11-06T14:41:44.161Z,5.53
2022-11-06T14:44:54.625Z,5.72
2022-11-06T14:47:56.998Z,6.15
2022-11-06T14:51:01.740Z,5.90
2022-11-06T14:54:26.235Z,5.87
2022-11-06T14:57:51.210Z,6.35
2022-11-06T15:00:58.921Z,6.47
2022-11-06T15:04:05.557Z,4.85
2022-11-06T15:07:58.248Z,7.00
2022-11-06T15:10:55.795Z,7.55
2022-11-06T15:14:08.873Z,5.90
2022-11-06T15:17:15.999Z,6.30
2022-11-06T15:20:25.954Z,5.88
2022-11-06T15:23:59.110Z,6.20
2022-11-06T15:27:17.150Z,6.40
2022-11-06T15:30:23.486Z,8.93
2022-11-06T15:33:51.571Z,5.90
2022-11-06T15:37:12.895Z,6.15
2022-11-06T15:40:28.122Z,5.88
2022-11-06T15:43:33.240Z,6.65
2022-11-06T15:46:37.001Z,5.97
2022-11-06T15:49:39.177Z,6.65
2022-11-06T15:52:49.703Z,6.45
2022-11-06T15:56:22.033Z,5.85
2022-11-06T15:59:24.097Z,6.25
2022-11-06T16:06:07.615Z,6.97
2022-11-06T16:09:36.601Z,7.40
2022-11-06T16:12:38.873Z,7.20
2022-11-06T16:15:49.929Z,9.80
2022-11-06T16:18:54.289Z,8.02
2022-11-06T16:22:19.485Z,6.90
2022-11-06T16:25:28.433Z,9.88
2022-11-06T16:29:03.413Z,8.07
2022-11-06T16:36:13.958Z,8.13
2022-11-06T16:39:47.629Z,7.97
2022-11-06T16:43:03.000Z,7.63
2022-11-06T16:46:12.805Z,7.68
2022-11-06T16:49:57.808Z,7.45
2022-11-06T16:53:05.274Z,6.90
2022-11-06T16:56:08.856Z,10.13
2022-11-06T16:59:20.257Z,7.95
2022-11-06T17:07:02.896Z,7.53
2022-11-06T17:10:38.106Z,7.97
2022-11-06T17:13:49.945Z,8.20
2022-11-06T17:17:05.607Z,8.40
2022-11-06T17:20:19.082Z,8.35
2022-11-06T17:23:25.481Z,9.27
2022-11-06T17:31:46.600Z,9.18
2022-11-06T17:35:29.467Z,7.68
2022-11-06T17:43:04.230Z,8.70
2022-11-06T17:47:44.048Z,8.13
2022-11-06T17:51:18.361Z,9.63
2022-11-06T17:54:23.729Z,9.38
2022-11-06T18:02:29.800Z,11.70
2022-11-06T18:07:17.737Z,8.57
2022-11-06T18:16:05.520Z,7.95
2022-11-06T18:19:38.069Z,8.88
2022-11-06T18:22:50.580Z,8.52
2022-11-06T18:26:00.182Z,9.02
2022-11-06T18:29:11.562Z,8.52
2022-11-06T18:32:20.729Z,6.03
2022-11-06T18:35:30.035Z,7.22
2022-11-06T18:38:33.791Z,7.63
2022-11-06T18:41:35.952Z,7.05
2022-11-06T18:44:41.438Z,7.68
2022-11-06T18:47:48.910Z,8.45
2022-11-06T18:53:58.895Z,7.47
2022-11-06T18:57:01.125Z,7.75
2022-11-06T19:00:05.239Z,7.47
2022-11-06T19:03:07.440Z,6.40
2022-11-06T19:06:12.306Z,7.85
2022-11-06T19:09:14.476Z,6.85
2022-11-06T19:12:16.769Z,6.25
2022-11-06T19:15:21.854Z,7.25
2022-11-06T19:18:28.752Z,6.55
2022-11-06T19:21:35.983Z,6.90
2022-11-06T19:24:42.017Z,8.07
2022-11-06T19:27:44.007Z,7.55
2022-11-06T19:30:46.263Z,7.13
2022-11-06T19:33:48.282Z,7.25
2022-11-06T19:36:50.359Z,6.07
2022-11-06T19:39:53.541Z,6.07
2022-11-06T19:43:12.658Z,6.47
2022-11-06T19:50:59.692Z,5.63
2022-11-06T19:54:02.475Z,5.32
2022-11-06T19:57:29.372Z,4.50
2022-11-06T20:00:27.379Z,6.38
2022-11-06T20:03:29.426Z,5.28
2022-11-06T20:06:44.230Z,6.07
2022-11-06T20:09:46.694Z,5.70
2022-11-06T20:12:53.075Z,4.68
2022-11-06T20:16:00.625Z,5.70
2022-11-06T20:19:05.633Z,5.82
2022-11-06T20:22:10.865Z,6.90
2022-11-06T20:25:19.327Z,6.38
2022-11-06T20:28:51.662Z,5.57
2022-11-06T20:31:55.465Z,4.93
2022-11-06T20:35:09.734Z,4.57
2022-11-06T20:38:12.513Z,4.63
2022-11-06T20:41:17.489Z,5.32
2022-11-06T20:44:22.565Z,5.93
2022-11-06T20:47:27.273Z,4.65
2022-11-06T20:50:29.404Z,4.68
2022-11-06T20:53:32.373Z,4.78
2022-11-06T20:56:35.181Z,5.07
2022-11-06T20:59:46.617Z,3.92
2022-11-06T21:06:40.877Z,4.57
2022-11-06T21:09:43.494Z,3.70
2022-11-06T21:12:46.392Z,3.75
2022-11-06T21:15:52.964Z,3.85
2022-11-06T21:18:55.221Z,3.55
2022-11-06T21:21:59.484Z,4.55
2022-11-06T21:25:06.254Z,4.45
2022-11-06T21:28:10.303Z,3.70
2022-11-06T21:31:16.002Z,4.38
2022-11-06T21:34:20.500Z,3.60
2022-11-06T21:37:33.066Z,3.85
2022-11-06T21:40:36.145Z,3.92
2022-11-06T21:43:38.571Z,3.75
2022-11-06T21:46:45.251Z,3.65
2022-11-06T21:49:54.186Z,3.75
2022-11-06T21:56:22.170Z,3.22
2022-11-06T21:59:29.558Z,4.45
2022-11-06T22:02:31.720Z,3.90
2022-11-06T22:05:34.168Z,4.22
2022-11-06T22:08:39.572Z,4.43
2022-11-06T22:11:43.810Z,4.00
2022-11-06T22:14:47.449Z,3.90
2022-11-06T22:17:50.030Z,3.72
2022-11-06T22:20:52.536Z,4.13
2022-11-06T22:24:00.943Z,4.25
2022-11-06T22:27:02.960Z,4.53
2022-11-06T22:30:07.040Z,3.15
2022-11-06T22:33:10.820Z,3.75
2022-11-06T22:36:16.429Z,3.75
2022-11-06T22:39:18.477Z,3.28
2022-11-06T22:42:20.626Z,3.38
2022-11-06T22:45:23.146Z,2.97
2022-11-06T22:48:26.666Z,3.80
2022-11-06T22:51:31.310Z,4.32
2022-11-06T22:54:33.498Z,3.67
2022-11-06T22:57:35.905Z,3.95
2022-11-06T23:00:39.787Z,3.50
2022-11-06T23:03:42.446Z,3.05
2022-11-06T23:06:45.741Z,3.47
2022-11-06T23:09:48.000Z,4.38
2022-11-06T23:12:50.196Z,3.83
2022-11-06T23:16:03.338Z,3.95
2022-11-06T23:19:06.402Z,4.40
2022-11-06T23:22:27.404Z,4.50
2022-11-06T23:25:30.777Z,4.95
2022-11-06T23:28:34.940Z,3.38
2022-11-06T23:31:38.600Z,3.60
2022-11-06T23:34:40.725Z,4.55
2022-11-06T23:37:43.298Z,3.08
2022-11-06T23:40:45.368Z,4.68
2022-11-06T23:43:51.839Z,3.72
2022-11-06T23:46:56.227Z,4.22
2022-11-06T23:49:59.832Z,4.60
2022-11-06T23:53:02.359Z,3.70
2022-11-06T23:56:06.926Z,4.35
2022-11-06T23:59:11.691Z,4.60
